createdAt,value
2023-01-07T00:01:40.277Z,101138.95
2023-01-07T00:04:15.508Z,101134.47
2023-01-07T00:06:50.462Z,101141.59
2023-01-07T00:09:22.932Z,101142.51
2023-01-07T00:11:56.633Z,101142.97
2023-01-07T00:14:28.985Z,101138.12
2023-01-07T00:17:01.584Z,101134.59
2023-01-07T00:19:34.036Z,101142.08
2023-01-07T00:22:06.319Z,101146.00
2023-01-07T00:24:38.923Z,101151.25
2023-01-07T00:27:11.500Z,101145.43
2023-01-07T00:29:44.048Z,101146.69
2023-01-07T00:32:16.449Z,101159.03
2023-01-07T00:34:48.915Z,101162.22
2023-01-07T00:37:39.708Z,101164.48
2023-01-07T00:40:34.032Z,101168.45
2023-01-07T00:43:07.005Z,101170.70
2023-01-07T00:45:39.701Z,101173.42
2023-01-07T00:48:12.280Z,101171.73
2023-01-07T00:50:45.482Z,101175.66
2023-01-07T00:53:18.450Z,101175.63
2023-01-07T00:55:51.321Z,101177.82
2023-01-07T00:58:26.691Z,101172.06
2023-01-07T01:01:00.013Z,101174.73
2023-01-07T01:03:33.023Z,101180.92
2023-01-07T01:06:08.562Z,101186.20
2023-01-07T01:08:44.739Z,101182.69
2023-01-07T01:11:17.972Z,101179.17
2023-01-07T01:13:50.938Z,101182.28
2023-01-07T01:16:23.673Z,101180.06
2023-01-07T01:18:56.424Z,101175.20
2023-01-07T01:21:29.028Z,101181.34
2023-01-07T01:24:01.960Z,101172.52
2023-01-07T01:26:34.990Z,101171.16
2023-01-07T01:29:07.578Z,101167.57
2023-01-07T01:31:41.051Z,101167.57
2023-01-07T01:34:13.656Z,101176.37
2023-01-07T01:36:46.062Z,101171.95
2023-01-07T01:39:20.362Z,101177.66
2023-01-07T01:41:53.226Z,101173.66
2023-01-07T01:44:51.145Z,101177.98
2023-01-07T01:47:39.379Z,101180.61
2023-01-07T01:50:38.318Z,101185.42
2023-01-07T01:53:27.010Z,101183.17
2023-01-07T01:56:15.701Z,101177.13
2023-01-07T01:58:57.511Z,101171.44
2023-01-07T02:01:31.390Z,101172.37
2023-01-07T02:04:14.618Z,101175.05
2023-01-07T02:07:10.361Z,101171.91
2023-01-07T02:09:44.571Z,101166.61
2023-01-07T02:12:38.585Z,101165.78
2023-01-07T02:15:29.690Z,101164.52
2023-01-07T02:18:21.147Z,101165.45
2023-01-07T02:21:07.514Z,101161.47
2023-01-07T02:24:05.611Z,101160.53
2023-01-07T02:26:49.150Z,101167.12
2023-01-07T02:29:47.658Z,101166.70
2023-01-07T02:32:45.733Z,101164.91
2023-01-07T02:35:57.545Z,101163.58
2023-01-07T02:38:41.401Z,101172.41
2023-01-07T02:41:41.231Z,101178.64
2023-01-07T02:44:31.053Z,101175.52
2023-01-07T02:47:28.247Z,101169.80
2023-01-07T02:50:02.694Z,101180.81
2023-01-07T02:52:36.117Z,101178.16
2023-01-07T02:55:29.275Z,101186.56
2023-01-07T02:58:16.922Z,101179.95
2023-01-07T03:01:24.128Z,101187.47
2023-01-07T03:04:33.475Z,101191.00
2023-01-07T03:07:13.377Z,101180.97
2023-01-07T03:10:00.196Z,101198.11
2023-01-07T03:12:46.787Z,101192.84
2023-01-07T03:15:28.767Z,101190.20
2023-01-07T03:18:10.394Z,101198.14
2023-01-07T03:20:44.997Z,101191.91
2023-01-07T03:23:19.323Z,101190.95
2023-01-07T03:25:52.806Z,101190.09
2023-01-07T03:28:28.901Z,101195.02
2023-01-07T03:31:01.437Z,101198.13
2023-01-07T03:33:48.596Z,101194.20
2023-01-07T03:36:24.669Z,101188.09
2023-01-07T03:38:58.770Z,101194.27
2023-01-07T03:41:50.743Z,101195.99
2023-01-07T03:44:23.589Z,101198.62
2023-01-07T03:46:56.063Z,101200.86
2023-01-07T03:49:28.699Z,101195.98
2023-01-07T03:52:01.932Z,101196.53
2023-01-07T03:54:34.567Z,101203.16
2023-01-07T03:57:07.761Z,101202.74
2023-01-07T03:59:40.761Z,101207.14
2023-01-07T04:02:13.657Z,101213.77
2023-01-07T04:04:46.563Z,101217.72
2023-01-07T04:07:19.338Z,101214.62
2023-01-07T04:09:52.380Z,101209.77
2023-01-07T04:12:26.320Z,101218.55
2023-01-07T04:14:59.900Z,101211.89
2023-01-07T04:17:32.947Z,101212.36
2023-01-07T04:20:08.138Z,101209.25
2023-01-07T04:22:41.016Z,101218.47
2023-01-07T04:25:13.951Z,101208.76
2023-01-07T04:27:46.712Z,101209.58
2023-01-07T04:30:19.592Z,101209.14
2023-01-07T04:32:53.694Z,101214.00
2023-01-07T04:35:26.289Z,101222.36
2023-01-07T04:37:59.059Z,101220.13
2023-01-07T04:40:32.577Z,101221.02
2023-01-07T04:43:06.065Z,101220.63
2023-01-07T04:45:38.867Z,101208.77
2023-01-07T04:48:11.290Z,101222.47
2023-01-07T04:50:44.016Z,101221.20
2023-01-07T04:53:18.421Z,101224.22
2023-01-07T04:55:51.928Z,101225.11
2023-01-07T04:58:25.067Z,101224.69
2023-01-07T05:00:59.514Z,101228.20
2023-01-07T05:03:34.769Z,101227.72
2023-01-07T05:06:09.533Z,101226.37
2023-01-07T05:08:42.505Z,101225.97
2023-01-07T05:11:18.173Z,101228.17
2023-01-07T05:13:53.851Z,101226.37
2023-01-07T05:16:27.495Z,101226.77
2023-01-07T05:19:01.705Z,101232.95
2023-01-07T05:21:36.060Z,101227.27
2023-01-07T05:24:09.041Z,101240.52
2023-01-07T05:26:41.824Z,101239.20
2023-01-07T05:29:14.980Z,101250.66
2023-01-07T05:31:48.227Z,101250.21
2023-01-07T05:34:21.907Z,101258.19
2023-01-07T05:36:54.338Z,101262.59
2023-01-07T05:39:27.174Z,101267.89
2023-01-07T05:42:00.880Z,101266.16
2023-01-07T05:44:33.537Z,101270.96
2023-01-07T05:47:06.122Z,101275.42
2023-01-07T05:49:39.173Z,101279.45
2023-01-07T05:52:11.532Z,101283.89
2023-01-07T05:54:44.405Z,101282.61
2023-01-07T05:57:17.470Z,101280.41
2023-01-07T05:59:49.984Z,101285.70
2023-01-07T06:02:22.398Z,101286.11
2023-01-07T06:04:54.915Z,101289.20
2023-01-07T06:07:27.628Z,101294.89
2023-01-07T06:10:02.643Z,101303.25
2023-01-07T06:12:35.231Z,101302.38
2023-01-07T06:15:29.491Z,101301.48
2023-01-07T06:18:02.583Z,101297.53
2023-01-07T06:20:36.496Z,101301.06
2023-01-07T06:23:10.374Z,101304.13
2023-01-07T06:25:42.909Z,101307.66
2023-01-07T06:28:15.830Z,101312.47
2023-01-07T06:30:48.774Z,101316.43
2023-01-07T06:33:21.284Z,101312.03
2023-01-07T06:35:54.449Z,101318.12
2023-01-07T06:38:28.097Z,101327.34
2023-01-07T06:41:01.967Z,101325.61
2023-01-07T06:43:35.466Z,101335.75
2023-01-07T06:46:08.755Z,101335.76
2023-01-07T06:48:42.578Z,101336.16
2023-01-07T06:51:14.921Z,101334.38
2023-01-07T06:53:48.050Z,101340.14
2023-01-07T06:56:20.605Z,101345.48
2023-01-07T06:58:53.145Z,101348.13
2023-01-07T07:01:25.878Z,101352.45
2023-01-07T07:03:59.037Z,101355.50
2023-01-07T07:06:31.400Z,101355.91
2023-01-07T07:09:04.102Z,101364.70
2023-01-07T07:11:37.243Z,101368.17
2023-01-07T07:14:10.145Z,101376.55
2023-01-07T07:16:43.548Z,101377.38
2023-01-07T07:19:16.199Z,101375.16
2023-01-07T07:21:49.702Z,101378.24
2023-01-07T07:24:23.293Z,101385.73
2023-01-07T07:26:56.361Z,101386.21
2023-01-07T07:29:29.554Z,101385.73
2023-01-07T07:32:02.366Z,101386.62
2023-01-07T07:34:36.071Z,101392.30
2023-01-07T07:37:09.405Z,101394.05
2023-01-07T07:39:41.747Z,101403.27
2023-01-07T07:42:14.229Z,101401.10
2023-01-07T07:44:48.658Z,101397.53
2023-01-07T07:47:21.126Z,101397.48
2023-01-07T07:49:53.845Z,101400.93
2023-01-07T07:52:26.744Z,101400.48
2023-01-07T07:55:19.924Z,101404.81
2023-01-07T07:57:33.942Z,101398.14
2023-01-07T08:00:08.785Z,101403.38
2023-01-07T08:02:47.236Z,101404.59
2023-01-07T08:05:20.190Z,101407.28
2023-01-07T08:07:53.359Z,101406.09
2023-01-07T08:10:29.386Z,101403.09
2023-01-07T08:13:01.876Z,101402.13
2023-01-07T08:15:34.454Z,101404.61
2023-01-07T08:18:10.239Z,101400.34
2023-01-07T08:20:43.157Z,101396.16
2023-01-07T08:23:15.935Z,101393.22
2023-01-07T08:25:49.048Z,101401.91
2023-01-07T08:28:21.941Z,101405.57
2023-01-07T08:30:54.719Z,101405.77
2023-01-07T08:33:27.333Z,101406.05
2023-01-07T08:35:59.944Z,101409.34
2023-01-07T08:38:32.944Z,101405.95
2023-01-07T08:41:05.944Z,101400.62
2023-01-07T08:43:38.830Z,101409.22
2023-01-07T08:46:11.526Z,101403.15
2023-01-07T08:48:44.345Z,101401.03
2023-01-07T08:51:17.203Z,101407.29
2023-01-07T08:53:49.803Z,101407.39
2023-01-07T08:56:23.867Z,101401.23
2023-01-07T08:58:56.739Z,101393.73
2023-01-07T09:01:30.600Z,101389.85
2023-01-07T09:04:03.148Z,101385.19
2023-01-07T09:06:35.574Z,101378.81
2023-01-07T09:09:08.697Z,101385.73
2023-01-07T09:11:42.699Z,101382.22
2023-01-07T09:14:16.213Z,101375.81
2023-01-07T09:16:49.038Z,101381.81
2023-01-07T09:19:21.619Z,101367.03
2023-01-07T09:21:54.797Z,101367.33
2023-01-07T09:24:27.158Z,101368.33
2023-01-07T09:26:59.719Z,101371.08
2023-01-07T09:29:33.444Z,101371.09
2023-01-07T09:32:05.933Z,101370.83
2023-01-07T09:34:38.650Z,101375.42
2023-01-07T09:37:11.657Z,101379.00
2023-01-07T09:39:44.609Z,101381.66
2023-01-07T09:42:56.867Z,101390.21
2023-01-07T09:45:44.101Z,101380.44
2023-01-07T09:48:29.918Z,101387.53
2023-01-07T09:51:17.625Z,101383.75
2023-01-07T09:54:12.780Z,101381.67
2023-01-07T09:56:45.155Z,101387.04
2023-01-07T10:02:53.085Z,101390.85
2023-01-07T10:05:57.853Z,101389.31
2023-01-07T10:09:00.752Z,101382.84
2023-01-07T10:12:16.277Z,101384.27
2023-01-07T10:15:04.504Z,101394.20
2023-01-07T10:18:07.467Z,101390.70
2023-01-07T10:20:51.562Z,101398.31
2023-01-07T10:26:33.203Z,101395.52
2023-01-07T10:29:41.030Z,101390.58
2023-01-07T10:32:19.850Z,101382.75
2023-01-07T10:34:56.085Z,101390.95
2023-01-07T10:37:41.960Z,101388.58
2023-01-07T10:40:44.645Z,101379.32
2023-01-07T10:43:51.802Z,101378.57
2023-01-07T10:46:46.722Z,101387.56
2023-01-07T10:49:49.699Z,101382.94
2023-01-07T10:52:36.564Z,101387.42
2023-01-07T10:55:28.889Z,101391.83
2023-01-07T10:58:01.459Z,101394.05
2023-01-07T11:00:34.517Z,101393.30
2023-01-07T11:03:07.103Z,101392.55
2023-01-07T11:05:40.295Z,101392.31
2023-01-07T11:08:35.551Z,101391.45
2023-01-07T11:11:08.529Z,101388.45
2023-01-07T11:13:41.502Z,101394.43
2023-01-07T11:16:24.721Z,101394.10
2023-01-07T11:19:07.731Z,101382.81
2023-01-07T11:21:44.712Z,101380.84
2023-01-07T11:24:35.696Z,101376.23
2023-01-07T11:27:19.123Z,101382.22
2023-01-07T11:30:22.433Z,101387.72
2023-01-07T11:33:07.016Z,101383.27
2023-01-07T11:35:41.839Z,101383.01
2023-01-07T11:38:33.219Z,101393.23
2023-01-07T11:41:08.291Z,101390.22
2023-01-07T11:43:41.216Z,101382.61
2023-01-07T11:46:19.359Z,101383.88
2023-01-07T11:49:01.736Z,101382.94
2023-01-07T11:51:41.489Z,101387.59
2023-01-07T11:54:26.477Z,101394.08
2023-01-07T11:57:17.267Z,101397.48
2023-01-07T11:59:49.694Z,101389.53
2023-01-07T12:02:29.029Z,101398.83
2023-01-07T12:05:22.295Z,101396.80
2023-01-07T12:07:54.758Z,101397.76
2023-01-07T12:10:38.898Z,101396.45
2023-01-07T12:13:21.929Z,101396.52
2023-01-07T12:16:02.765Z,101403.23
2023-01-07T12:19:01.809Z,101400.27
2023-01-07T12:21:46.286Z,101413.99
2023-01-07T12:24:32.757Z,101403.87
2023-01-07T12:27:37.173Z,101401.19
2023-01-07T12:30:37.861Z,101409.06
2023-01-07T12:33:21.090Z,101398.06
2023-01-07T12:35:54.106Z,101399.64
2023-01-07T12:38:40.385Z,101408.97
2023-01-07T12:41:26.084Z,101406.06
2023-01-07T12:44:05.318Z,101409.34
2023-01-07T12:47:31.322Z,101405.86
2023-01-07T12:50:06.060Z,101389.98
2023-01-07T12:53:15.559Z,101389.57
2023-01-07T12:56:01.542Z,101395.27
2023-01-07T12:58:50.457Z,101398.39
2023-01-07T13:01:30.061Z,101407.66
2023-01-07T13:04:29.923Z,101407.19
2023-01-07T13:07:19.251Z,101408.55
2023-01-07T13:10:01.809Z,101414.48
2023-01-07T13:12:46.351Z,101411.96
2023-01-07T13:15:45.753Z,101407.59
2023-01-07T13:18:19.924Z,101405.88
2023-01-07T13:21:14.207Z,101411.65
2023-01-07T13:24:19.388Z,101410.36
2023-01-07T13:26:54.076Z,101416.95
2023-01-07T13:29:38.002Z,101412.13
2023-01-07T13:32:27.443Z,101415.28
2023-01-07T13:35:30.995Z,101416.20
2023-01-07T13:38:27.756Z,101421.52
2023-01-07T13:41:27.773Z,101420.28
2023-01-07T13:44:36.843Z,101420.40
2023-01-07T13:47:10.502Z,101429.70
2023-01-07T13:49:56.677Z,101427.92
2023-01-07T13:52:22.372Z,101436.80
2023-01-07T13:54:56.955Z,101443.97
2023-01-07T13:57:34.798Z,101438.75
2023-01-07T14:00:10.247Z,101453.80
2023-01-07T14:02:58.519Z,101452.48
2023-01-07T14:05:31.256Z,101458.69
2023-01-07T14:08:04.690Z,101457.80
2023-01-07T14:10:38.738Z,101458.22
2023-01-07T14:13:34.493Z,101447.23
2023-01-07T14:16:29.746Z,101455.61
2023-01-07T14:19:16.612Z,101460.49
2023-01-07T14:22:20.397Z,101456.14
2023-01-07T14:25:06.815Z,101460.61
2023-01-07T14:27:50.182Z,101467.68
2023-01-07T14:30:40.132Z,101471.66
2023-01-07T14:33:24.962Z,101474.78
2023-01-07T14:36:08.043Z,101477.44
2023-01-07T14:38:47.032Z,101484.05
2023-01-07T14:41:20.518Z,101481.88
2023-01-07T14:44:08.909Z,101491.14
2023-01-07T14:46:45.797Z,101492.45
2023-01-07T14:49:50.832Z,101500.34
2023-01-07T14:52:30.652Z,101494.20
2023-01-07T14:55:38.441Z,101501.72
2023-01-07T14:59:02.108Z,101508.76
2023-01-07T15:02:06.960Z,101507.44
2023-01-07T15:05:19.347Z,101502.20
2023-01-07T15:07:57.199Z,101512.80
2023-01-07T15:10:49.771Z,101510.98
2023-01-07T15:13:39.572Z,101508.80
2023-01-07T15:16:12.252Z,101508.77
2023-01-07T15:18:53.333Z,101505.69
2023-01-07T15:21:47.885Z,101514.05
2023-01-07T15:24:46.445Z,101511.44
2023-01-07T15:27:57.017Z,101507.95
2023-01-07T15:31:16.723Z,101520.22
2023-01-07T15:34:08.428Z,101519.80
2023-01-07T15:36:45.137Z,101519.80
2023-01-07T15:39:30.998Z,101522.00
2023-01-07T15:42:05.818Z,101516.27
2023-01-07T15:44:42.008Z,101512.80
2023-01-07T15:47:44.237Z,101518.97
2023-01-07T15:50:33.996Z,101517.19
2023-01-07T15:53:17.948Z,101522.47
2023-01-07T15:56:08.067Z,101525.11
2023-01-07T15:58:45.649Z,101519.83
2023-01-07T16:01:24.151Z,101518.97
2023-01-07T16:03:57.608Z,101516.33
2023-01-07T16:06:38.889Z,101519.83
2023-01-07T16:09:19.946Z,101513.23
2023-01-07T16:11:53.179Z,101519.83
2023-01-07T16:14:27.451Z,101510.16
2023-01-07T16:17:15.196Z,101508.41
2023-01-07T16:19:47.764Z,101514.55
2023-01-07T16:22:22.874Z,101507.52
2023-01-07T16:24:55.346Z,101520.29
2023-01-07T16:27:32.683Z,101511.94
2023-01-07T16:30:05.757Z,101509.73
2023-01-07T16:32:38.676Z,101503.55
2023-01-07T16:35:24.153Z,101502.66
2023-01-07T16:37:56.769Z,101503.55
2023-01-07T16:40:39.350Z,101503.55
2023-01-07T16:43:34.383Z,101496.05
2023-01-07T16:46:19.777Z,101492.98
2023-01-07T16:49:13.988Z,101507.95
2023-01-07T16:52:06.209Z,101498.27
2023-01-07T16:54:40.504Z,101492.98
2023-01-07T16:57:17.857Z,101497.41
2023-01-07T16:59:53.954Z,101497.84
2023-01-07T17:02:52.409Z,101504.44
2023-01-07T17:05:30.548Z,101506.19
2023-01-07T17:08:07.539Z,101493.88
2023-01-07T17:10:44.280Z,101495.63
2023-01-07T17:13:28.020Z,101498.30
2023-01-07T17:16:24.599Z,101491.66
2023-01-07T17:18:57.638Z,101499.58
2023-01-07T17:21:42.967Z,101490.80
2023-01-07T17:24:41.220Z,101490.34
2023-01-07T17:27:18.671Z,101484.63
2023-01-07T17:29:51.106Z,101491.69
2023-01-07T17:32:24.456Z,101494.33
2023-01-07T17:35:03.011Z,101500.93
2023-01-07T17:37:36.994Z,101493.00
2023-01-07T17:40:10.899Z,101493.00
2023-01-07T17:43:01.262Z,101483.30
2023-01-07T17:45:34.193Z,101486.41
2023-01-07T17:48:14.146Z,101504.45
2023-01-07T17:50:46.630Z,101504.44
2023-01-07T17:53:26.065Z,101504.41
2023-01-07T17:55:58.608Z,101508.83
2023-01-07T17:58:35.998Z,101507.05
2023-01-07T18:01:12.494Z,101502.23
2023-01-07T18:03:48.812Z,101517.59
2023-01-07T18:06:24.749Z,101524.66
2023-01-07T18:08:57.504Z,101521.55
2023-01-07T18:11:48.688Z,101522.88
2023-01-07T18:14:22.266Z,101533.03
2023-01-07T18:16:55.132Z,101537.44
2023-01-07T18:19:27.757Z,101536.13
2023-01-07T18:22:00.451Z,101547.11
2023-01-07T18:24:33.353Z,101544.03
2023-01-07T18:27:06.314Z,101544.02
2023-01-07T18:29:39.127Z,101536.13
2023-01-07T18:32:11.757Z,101535.67
2023-01-07T18:34:44.696Z,101540.96
2023-01-07T18:37:17.984Z,101546.25
2023-01-07T18:39:50.478Z,101544.94
2023-01-07T18:42:23.090Z,101545.80
2023-01-07T18:44:55.495Z,101545.37
2023-01-07T18:47:28.530Z,101542.28
2023-01-07T18:50:00.891Z,101540.97
2023-01-07T18:52:34.208Z,101537.83
2023-01-07T18:55:07.959Z,101538.72
2023-01-07T18:57:40.454Z,101539.15
2023-01-07T19:00:14.057Z,101540.04
2023-01-07T19:02:46.476Z,101541.83
2023-01-07T19:05:19.286Z,101547.97
2023-01-07T19:07:53.046Z,101547.97
2023-01-07T19:10:27.112Z,101546.64
2023-01-07T19:12:59.732Z,101547.06
2023-01-07T19:15:33.986Z,101553.25
2023-01-07T19:18:07.813Z,101557.63
2023-01-07T19:20:40.181Z,101557.63
2023-01-07T19:23:12.544Z,101569.95
2023-01-07T19:25:45.281Z,101569.06
2023-01-07T19:28:17.698Z,101568.20
2023-01-07T19:30:50.246Z,101567.30
2023-01-07T19:33:23.068Z,101571.69
2023-01-07T19:36:07.862Z,101567.72
2023-01-07T19:38:49.181Z,101570.36
2023-01-07T19:41:23.417Z,101577.81
